Hillisburg, Indiana
Current Conditions -  °F | °C
As of 12:35 PM on Thursday 30 Oct 2014 (Local Time) from KFKR Reporting Station
Clear Clear  
Wind Chill: 50°   Ceiling: Unl
Heat Index: 50°   Visibility: 10mi
Dew Point: 34°   Wind: 5mph
Humidity: 53%   Direction: 180°S
Pressure: 30.16"   Gusts: NA
Location:  40.29°N, 86.34°W
Report Text: KFKR 301635Z AUTO 18004KT 10SM CLR 10/01 A3016 RMK AO2 T01020010
Loading
Personal Weather Stations






























Interactive Weather Map
Tropical Storm Tracking
New forecast layout! Learn more

10-Day Weather Forecast

Advertisements
Track Severe Weather on mobile